Time;durP1;ratioP1;P1;durP2;ratioP2;P2;SDS_P1;SDS_P2;PMS_P1;PMS_P2;Temp;Humidity;BMP_temperature;BMP_pressure;BME280_temperature;BME280_humidity;BME280_pressure;Samples;Min_cycle;Max_cycle;Signal;HPM_P1;HPM_P2
2023/12/13 00:02:07;;;;;;;0.70;0.70;;;;;;;7.48;94.40;97140.13;5029773;28;20427;-77
2023/12/13 00:04:32;;;;;;;0.70;0.70;;;;;;;7.40;94.78;97127.63;5032936;28;20067;-76
2023/12/13 00:07:00;;;;;;;0.70;0.70;;;;;;;7.37;94.57;97124.91;5032716;28;20067;-77
2023/12/13 00:09:26;;;;;;;0.70;0.70;;;;;;;7.28;94.87;97124.78;5041724;28;20134;-77
2023/12/13 00:11:51;;;;;;;0.70;0.70;;;;;;;7.34;94.41;97130.19;5031696;28;20041;-77
2023/12/13 00:14:17;;;;;;;0.70;0.70;;;;;;;7.38;94.61;97139.97;5034222;28;20419;-78
2023/12/13 00:16:43;;;;;;;0.70;0.70;;;;;;;7.28;94.64;97129.19;5034142;28;20128;-77
2023/12/13 00:19:08;;;;;;;0.70;0.70;;;;;;;7.25;95.03;97135.34;5036882;28;20034;-77
2023/12/13 00:21:35;;;;;;;0.70;0.70;;;;;;;7.30;95.44;97120.38;5032917;28;20502;-77
2023/12/13 00:24:01;;;;;;;0.80;0.80;;;;;;;7.26;95.16;97118.53;5033101;28;20043;-77
2023/12/13 00:26:26;;;;;;;0.70;0.70;;;;;;;7.20;95.48;97113.16;5030916;28;20033;-77
2023/12/13 00:28:52;;;;;;;0.73;0.73;;;;;;;7.21;95.40;97109.63;5036709;28;20715;-77
2023/12/13 00:31:18;;;;;;;0.65;0.65;;;;;;;7.18;95.38;97101.59;5031071;28;20036;-77
2023/12/13 00:33:43;;;;;;;0.68;0.68;;;;;;;7.17;95.56;97105.13;5032679;28;20067;-77
2023/12/13 00:36:08;;;;;;;0.70;0.70;;;;;;;7.11;95.87;97097.09;5031252;28;20048;-77
2023/12/13 00:38:34;;;;;;;0.70;0.70;;;;;;;7.07;96.16;97090.84;5030948;28;20040;-77
2023/12/13 00:41:00;;;;;;;0.70;0.70;;;;;;;6.97;96.19;97088.00;5029375;28;20052;-77
2023/12/13 00:43:26;;;;;;;0.70;0.70;;;;;;;6.86;96.96;97095.78;5032000;28;20029;-77
2023/12/13 00:45:51;;;;;;;0.70;0.70;;;;;;;6.71;97.40;97082.25;5031031;28;20037;-78
2023/12/13 00:48:17;;;;;;;0.70;0.70;;;;;;;6.58;97.98;97081.16;5032895;28;20048;-77
2023/12/13 00:50:43;;;;;;;0.75;0.75;;;;;;;6.68;98.12;97089.28;5037655;28;20466;-77
2023/12/13 00:53:08;;;;;;;0.75;0.75;;;;;;;6.67;98.28;97090.16;5035745;28;20068;-77
2023/12/13 00:55:34;;;;;;;0.80;0.80;;;;;;;6.64;98.42;97087.44;5035995;28;20045;-77
2023/12/13 00:58:02;;;;;;;0.70;0.70;;;;;;;6.53;98.78;97093.44;5033855;28;20036;-77
2023/12/13 01:00:29;;;;;;;0.70;0.70;;;;;;;6.57;98.56;97087.34;5036409;28;20043;-77
2023/12/13 01:02:58;;;;;;;0.70;0.70;;;;;;;6.43;98.98;97087.06;5030050;28;20037;-77
2023/12/13 01:05:23;;;;;;;0.70;0.70;;;;;;;6.38;98.88;97080.81;5034287;28;20048;-77
2023/12/13 01:07:49;;;;;;;0.75;0.75;;;;;;;6.43;98.97;97087.97;5032504;28;20052;-77
2023/12/13 01:10:14;;;;;;;0.70;0.70;;;;;;;6.43;98.65;97087.97;5031135;28;20041;-77
2023/12/13 01:12:42;;;;;;;0.70;0.70;;;;;;;6.39;98.79;97087.88;5028728;28;20034;-77
2023/12/13 01:15:09;;;;;;;0.77;0.77;;;;;;;6.25;98.80;97082.31;5032226;28;20123;-77
2023/12/13 01:17:34;;;;;;;;;;;;;;;6.24;99.08;97088.47;5031921;28;20518;-77
2023/12/13 01:20:00;;;;;;;0.80;0.80;;;;;;;6.34;98.89;97090.44;5038178;28;19917;-77
2023/12/13 01:22:26;;;;;;;0.82;0.82;;;;;;;6.25;98.87;97097.31;5038106;28;20044;-78
2023/12/13 01:24:51;;;;;;;0.70;0.70;;;;;;;6.24;98.78;97090.25;5027798;28;20041;-77
2023/12/13 01:27:16;;;;;;;0.80;0.80;;;;;;;6.38;98.90;97086.09;5027838;28;20391;-77
2023/12/13 01:29:42;;;;;;;0.80;0.80;;;;;;;6.53;98.01;97093.44;5030197;28;20491;-77
2023/12/13 01:32:07;;;;;;;0.80;0.80;;;;;;;6.36;98.00;97086.03;5034585;28;20087;-77
2023/12/13 01:34:33;;;;;;;0.80;0.80;;;;;;;6.29;98.10;97083.28;5032143;28;20053;-77
2023/12/13 01:36:58;;;;;;;0.80;0.80;;;;;;;6.17;98.25;97084.78;5029000;28;20037;-77
2023/12/13 01:39:24;;;;;;;0.77;0.77;;;;;;;6.31;98.23;97077.13;5030258;28;20423;-77
2023/12/13 01:41:49;;;;;;;0.70;0.70;;;;;;;6.32;97.90;97083.31;5029314;28;20323;-77
2023/12/13 01:44:14;;;;;;;0.80;0.80;;;;;;;6.28;98.18;97085.03;5033849;28;20036;-77
2023/12/13 01:46:41;;;;;;;0.80;0.80;;;;;;;6.19;97.92;97084.84;5028193;28;20041;-77
2023/12/13 01:49:08;;;;;;;0.80;0.80;;;;;;;6.26;98.27;97083.19;5029772;28;20038;-77
2023/12/13 01:51:35;;;;;;;0.90;0.90;;;;;;;6.37;98.02;97073.69;5032866;28;20044;-77
2023/12/13 01:54:06;;;;;;;0.80;0.80;;;;;;;6.39;98.18;97071.97;5030924;28;20052;-77
2023/12/13 01:56:32;;;;;;;0.80;0.80;;;;;;;6.42;97.78;97075.59;5033510;28;20041;-77
2023/12/13 01:58:58;;;;;;;0.77;0.77;;;;;;;6.36;98.38;97080.75;5032349;28;20472;-77
2023/12/13 02:01:23;;;;;;;0.80;0.80;;;;;;;6.41;98.13;97072.88;5031651;28;20088;-77
2023/12/13 02:03:49;;;;;;;0.70;0.70;;;;;;;6.41;98.51;97064.94;5032477;28;20046;-77
2023/12/13 02:06:14;;;;;;;0.80;0.80;;;;;;;6.45;98.02;97056.19;5029433;28;20037;-77
2023/12/13 02:08:40;;;;;;;0.80;0.80;;;;;;;6.53;97.04;97062.53;5037188;28;20103;-77
2023/12/13 02:11:06;;;;;;;0.70;0.70;;;;;;;6.39;96.60;97053.44;5034490;28;20044;-77
2023/12/13 02:13:32;;;;;;;0.70;0.70;;;;;;;6.56;95.87;97059.03;5030439;28;20506;-77
2023/12/13 02:16:00;;;;;;;0.80;0.80;;;;;;;6.45;96.33;97057.94;5031409;28;20075;-77
2023/12/13 02:18:27;;;;;;;0.70;0.70;;;;;;;6.43;96.25;97061.47;5027346;28;20120;-77
2023/12/13 02:20:53;;;;;;;0.85;0.85;;;;;;;6.48;96.67;97071.25;5030397;28;20052;-77
2023/12/13 02:23:18;;;;;;;0.63;0.63;;;;;;;6.57;96.82;97060.84;5030393;28;20041;-77
2023/12/13 02:25:58;;;;;;;0.80;0.80;;;;;;;6.54;97.23;97066.06;5031059;28;20036;-78
2023/12/13 02:28:24;;;;;;;0.80;0.80;;;;;;;6.53;97.10;97067.81;5036761;28;20040;-77
2023/12/13 02:30:52;;;;;;;0.70;0.70;;;;;;;6.50;97.04;97058.94;5034286;28;20041;-78
2023/12/13 02:33:18;;;;;;;0.70;0.70;;;;;;;6.54;97.16;97053.72;5034534;28;20033;-77
2023/12/13 02:35:43;;;;;;;0.70;0.70;;;;;;;6.60;96.65;97063.53;5035146;28;20116;-77
2023/12/13 02:38:08;;;;;;;0.63;0.63;;;;;;;6.54;96.82;97058.13;5030860;28;20033;-77
2023/12/13 02:40:34;;;;;;;0.80;0.80;;;;;;;6.53;96.97;97053.69;5033204;28;20533;-77
2023/12/13 02:42:59;;;;;;;0.73;0.73;;;;;;;6.59;96.18;97054.69;5035986;28;20036;-77
2023/12/13 02:45:25;;;;;;;0.70;0.70;;;;;;;6.60;96.74;97059.09;5049645;28;20128;-77
2023/12/13 02:47:52;;;;;;;0.70;0.70;;;;;;;6.53;96.85;97057.22;5038323;28;20037;-77
2023/12/13 02:50:18;;;;;;;;;;;;;;;6.52;96.86;97054.56;5035197;28;20040;-77
2023/12/13 02:52:44;;;;;;;0.80;0.80;;;;;;;6.55;96.83;97051.94;5036189;28;20011;-77
2023/12/13 02:55:09;;;;;;;0.80;0.80;;;;;;;6.59;97.05;97053.78;5032445;28;20044;-77
2023/12/13 02:57:35;;;;;;;0.70;0.70;;;;;;;6.66;96.67;97063.66;5031863;28;20064;-77
2023/12/13 03:00:01;;;;;;;0.80;0.80;;;;;;;6.69;96.13;97058.38;5036265;28;20044;-77
2023/12/13 03:02:27;;;;;;;0.70;0.70;;;;;;;6.78;95.25;97058.53;5034708;28;20033;-77
2023/12/13 03:04:52;;;;;;;0.75;0.75;;;;;;;6.86;94.40;97048.09;5035504;28;20041;-77
2023/12/13 03:07:19;;;;;;;0.80;0.80;;;;;;;6.87;93.66;97048.09;5034294;28;20406;-77
2023/12/13 03:09:44;;;;;;;0.80;0.80;;;;;;;6.82;93.83;97046.25;5033543;28;20091;-77
2023/12/13 03:12:10;;;;;;;0.73;0.73;;;;;;;6.80;94.62;97055.91;5033987;28;20045;-77
2023/12/13 03:14:36;;;;;;;0.77;0.77;;;;;;;6.73;94.86;97054.03;5032257;28;20037;-77
2023/12/13 03:17:04;;;;;;;0.80;0.80;;;;;;;6.67;94.79;97052.19;5033689;28;20033;-78
2023/12/13 03:19:29;;;;;;;0.80;0.80;;;;;;;6.72;94.76;97050.50;5032768;28;20090;-77
2023/12/13 03:21:54;;;;;;;0.80;0.80;;;;;;;6.77;94.91;97055.88;5030457;28;20037;-77
2023/12/13 03:24:20;;;;;;;0.77;0.77;;;;;;;6.78;94.58;97050.59;5032295;28;20041;-77
2023/12/13 03:26:45;;;;;;;0.70;0.70;;;;;;;6.70;94.57;97049.56;5035079;28;20111;-78
2023/12/13 03:29:11;;;;;;;0.80;0.80;;;;;;;6.76;94.13;97052.34;5034408;28;20490;-77
2023/12/13 03:31:36;;;;;;;0.70;0.70;;;;;;;6.73;94.32;97046.09;5031266;28;20037;-77
2023/12/13 03:34:01;;;;;;;0.70;0.70;;;;;;;6.82;93.99;97052.44;5033260;28;20047;-77
2023/12/13 03:36:27;;;;;;;0.80;0.80;;;;;;;6.76;94.27;97067.34;5032212;28;20041;-77
2023/12/13 03:38:52;;;;;;;0.80;0.80;;;;;;;6.79;94.38;97065.63;5032935;28;20041;-78
2023/12/13 03:41:18;;;;;;;0.70;0.70;;;;;;;6.79;93.78;97057.66;5034889;28;20076;-77
2023/12/13 03:43:44;;;;;;;0.80;0.80;;;;;;;6.86;93.53;97045.44;5035205;28;20048;-78
2023/12/13 03:46:09;;;;;;;0.70;0.70;;;;;;;6.79;93.86;97044.41;5031697;28;20041;-78
2023/12/13 03:48:34;;;;;;;0.70;0.70;;;;;;;6.73;93.95;97032.84;5031166;28;20640;-78
2023/12/13 03:51:01;;;;;;;0.70;0.70;;;;;;;6.60;94.57;97032.63;5032491;28;20400;-78
2023/12/13 03:53:27;;;;;;;0.80;0.80;;;;;;;6.53;95.27;97030.75;5032398;28;20091;-78
2023/12/13 03:55:52;;;;;;;0.80;0.80;;;;;;;6.55;95.00;97033.41;5032048;28;20116;-78
2023/12/13 03:58:18;;;;;;;0.80;0.80;;;;;;;6.50;95.39;97035.09;5031871;28;20037;-78
2023/12/13 04:00:43;;;;;;;0.75;0.75;;;;;;;6.48;95.87;97027.13;5038759;28;20041;-78
2023/12/13 04:03:09;;;;;;;0.80;0.80;;;;;;;6.42;95.70;97029.66;5032348;28;20041;-78
2023/12/13 04:05:34;;;;;;;0.80;0.80;;;;;;;6.41;96.20;97025.22;5034426;28;20040;-78
2023/12/13 04:07:59;;;;;;;0.70;0.70;;;;;;;6.46;96.14;97025.28;5032564;28;20539;-78
2023/12/13 04:10:26;;;;;;;0.80;0.80;;;;;;;6.41;95.98;97022.56;5033387;28;20048;-78
2023/12/13 04:12:52;;;;;;;0.80;0.80;;;;;;;6.40;96.29;97016.38;5029622;28;20728;-77
2023/12/13 04:15:17;;;;;;;0.80;0.80;;;;;;;6.36;96.54;97011.00;5031593;28;20066;-78
2023/12/13 04:17:43;;;;;;;0.80;0.80;;;;;;;6.28;96.98;97015.28;5029818;28;20041;-78
2023/12/13 04:20:09;;;;;;;0.70;0.70;;;;;;;6.28;97.05;97016.19;5036788;28;20470;-78
2023/12/13 04:22:34;;;;;;;0.90;0.90;;;;;;;6.17;97.26;97010.66;5035231;28;20044;-78
2023/12/13 04:25:00;;;;;;;0.85;0.85;;;;;;;6.23;97.74;97004.59;5039952;28;20399;-78
2023/12/13 04:27:25;;;;;;;0.77;0.77;;;;;;;6.19;97.39;97000.13;5036965;28;20420;-78
2023/12/13 04:29:51;;;;;;;0.90;0.90;;;;;;;6.07;97.53;96997.22;5033541;28;20049;-78
2023/12/13 04:32:16;;;;;;;0.80;0.80;;;;;;;5.88;98.00;97007.41;5037840;28;20037;-78
2023/12/13 04:34:42;;;;;;;0.80;0.80;;;;;;;5.83;98.05;97009.09;5031199;28;20196;-78
2023/12/13 04:37:07;;;;;;;0.80;0.80;;;;;;;5.78;98.14;96994.88;5033581;28;20038;-78
2023/12/13 04:39:33;;;;;;;0.75;0.75;;;;;;;5.77;98.49;96993.09;5030493;28;20049;-78
2023/12/13 04:41:58;;;;;;;0.80;0.80;;;;;;;5.95;98.20;96989.97;5029995;28;20034;-78
2023/12/13 04:44:27;;;;;;;0.80;0.80;;;;;;;5.87;97.80;96984.47;5032759;28;20116;-78
2023/12/13 04:46:59;;;;;;;0.80;0.80;;;;;;;5.78;98.60;96984.28;5034925;28;20045;-78
2023/12/13 04:49:24;;;;;;;0.90;0.90;;;;;;;5.70;98.22;96979.72;5045784;28;20454;-78
2023/12/13 04:51:50;;;;;;;0.80;0.80;;;;;;;5.58;98.74;96988.31;5029179;28;20045;-78
2023/12/13 04:54:16;;;;;;;0.80;0.80;;;;;;;5.79;98.72;96983.41;5030139;28;20030;-78
2023/12/13 04:56:41;;;;;;;0.73;0.73;;;;;;;5.71;98.28;96987.69;5029995;28;20454;-78
2023/12/13 04:59:07;;;;;;;0.90;0.90;;;;;;;5.68;98.19;96984.09;5033130;28;20088;-78
2023/12/13 05:01:32;;;;;;;0.80;0.80;;;;;;;5.53;98.31;96979.38;5030313;28;20067;-78
2023/12/13 05:03:58;;;;;;;0.70;0.70;;;;;;;5.51;98.73;96978.44;5033919;28;20447;-78
2023/12/13 05:06:23;;;;;;;0.80;0.80;;;;;;;5.58;98.64;96972.44;5031871;28;20071;-78
2023/12/13 05:08:49;;;;;;;0.80;0.80;;;;;;;5.44;98.54;96972.16;5032426;28;20098;-78
2023/12/13 05:11:14;;;;;;;0.80;0.80;;;;;;;5.34;98.81;96975.47;5034882;28;20683;-78
2023/12/13 05:13:40;;;;;;;0.90;0.90;;;;;;;5.34;98.93;96979.00;5031502;28;20029;-78
2023/12/13 05:16:06;;;;;;;0.90;0.90;;;;;;;5.51;98.64;96978.44;5032292;28;20036;-78
2023/12/13 05:18:32;;;;;;;0.80;0.80;;;;;;;5.51;99.07;96973.16;5031475;28;20040;-78
2023/12/13 05:20:57;;;;;;;0.80;0.80;;;;;;;5.56;99.05;96967.13;5031151;28;20029;-78
2023/12/13 05:23:23;;;;;;;0.80;0.80;;;;;;;5.71;98.82;96969.19;5029398;28;20071;-78
2023/12/13 05:25:48;;;;;;;0.70;0.70;;;;;;;5.69;98.84;96970.88;5029669;28;20124;-78
2023/12/13 05:28:13;;;;;;;0.80;0.80;;;;;;;5.74;98.95;96961.28;5036698;28;20147;-78
2023/12/13 05:30:39;;;;;;;0.80;0.80;;;;;;;5.76;98.92;96951.63;5029781;28;20570;-78
2023/12/13 05:33:07;;;;;;;0.88;0.88;;;;;;;5.77;98.50;96958.69;5032406;28;20034;-78
2023/12/13 05:35:35;;;;;;;0.80;0.80;;;;;;;5.79;98.76;96961.38;5035940;28;20041;-78
2023/12/13 05:38:00;;;;;;;0.70;0.70;;;;;;;5.85;98.61;96945.63;5029491;28;20079;-78
2023/12/13 05:40:26;;;;;;;0.80;0.80;;;;;;;5.80;98.46;96953.47;5033817;28;20722;-78
2023/12/13 05:42:51;;;;;;;0.80;0.80;;;;;;;5.72;98.77;96939.19;5029780;28;20041;-78
2023/12/13 05:45:17;;;;;;;0.80;0.80;;;;;;;5.80;98.48;96942.91;5031815;28;20028;-78
2023/12/13 05:47:42;;;;;;;0.70;0.70;;;;;;;5.88;98.34;96954.50;5029786;28;20045;-78
2023/12/13 05:50:08;;;;;;;0.70;0.70;;;;;;;5.95;97.99;96949.38;5033718;28;20553;-78
2023/12/13 05:52:33;;;;;;;0.80;0.80;;;;;;;5.90;98.10;96947.50;5022723;28;20115;-78
2023/12/13 05:54:59;;;;;;;0.80;0.80;;;;;;;5.86;98.01;96945.66;5033439;28;20041;-78
2023/12/13 05:57:25;;;;;;;0.80;0.80;;;;;;;5.85;98.26;96946.50;5031811;28;20029;-78
2023/12/13 05:59:50;;;;;;;0.80;0.80;;;;;;;5.81;98.31;96949.06;5037927;28;20674;-78
2023/12/13 06:02:16;;;;;;;0.70;0.70;;;;;;;5.83;98.46;96950.88;5028456;28;20045;-78
2023/12/13 06:04:43;;;;;;;0.80;0.80;;;;;;;5.83;98.34;96944.69;5028333;28;20045;-78
2023/12/13 06:07:11;;;;;;;0.80;0.80;;;;;;;5.91;98.52;96938.72;5030583;28;20059;-78
2023/12/13 06:09:37;;;;;;;0.80;0.80;;;;;;;5.89;98.46;96929.84;5029946;28;20099;-78
2023/12/13 06:12:03;;;;;;;0.73;0.73;;;;;;;5.87;98.71;96934.19;5034479;28;20029;-77
2023/12/13 06:14:29;;;;;;;0.80;0.80;;;;;;;5.89;98.59;96940.41;5039654;28;20424;-78
2023/12/13 06:16:55;;;;;;;0.73;0.73;;;;;;;5.93;98.81;96929.91;5027933;28;20040;-77
2023/12/13 06:19:21;;;;;;;0.70;0.70;;;;;;;5.92;98.55;96929.00;5027002;28;20033;-78
2023/12/13 06:21:47;;;;;;;0.70;0.70;;;;;;;5.90;98.62;96928.06;5028770;28;20436;-77
2023/12/13 06:24:12;;;;;;;0.77;0.77;;;;;;;5.97;98.78;96923.81;5026322;28;20049;-78
2023/12/13 06:26:38;;;;;;;0.80;0.80;;;;;;;5.95;98.88;96937.03;5029936;28;20037;-78
2023/12/13 06:29:03;;;;;;;0.75;0.75;;;;;;;5.97;98.48;96932.63;5030573;28;20136;-78
2023/12/13 06:31:29;;;;;;;0.70;0.70;;;;;;;5.94;98.90;96927.31;5033016;28;20482;-77
2023/12/13 06:33:54;;;;;;;0.80;0.80;;;;;;;5.95;98.61;96942.31;5026801;28;20041;-77
2023/12/13 06:36:20;;;;;;;0.80;0.80;;;;;;;6.07;98.70;96931.94;5028160;28;20030;-76
2023/12/13 06:38:46;;;;;;;0.70;0.70;;;;;;;6.20;98.05;96935.69;5027439;28;20041;-76
2023/12/13 06:41:12;;;;;;;0.90;0.90;;;;;;;6.20;97.79;96933.03;5030305;28;20060;-76
2023/12/13 06:43:37;;;;;;;0.70;0.70;;;;;;;6.05;97.75;96932.78;5034322;28;20478;-77
2023/12/13 06:46:03;;;;;;;0.75;0.75;;;;;;;5.96;97.87;96927.31;5028556;28;20076;-76
2023/12/13 06:48:29;;;;;;;0.88;0.88;;;;;;;5.91;98.54;96927.22;5027686;28;20045;-77
2023/12/13 06:50:55;;;;;;;0.80;0.80;;;;;;;5.89;98.61;96920.97;5032750;28;20041;-77
2023/12/13 06:53:21;;;;;;;0.80;0.80;;;;;;;5.99;98.56;96916.78;5028647;28;20035;-77
2023/12/13 06:55:46;;;;;;;0.80;0.80;;;;;;;5.96;98.70;96916.75;5028575;28;20063;-78
2023/12/13 06:58:12;;;;;;;0.80;0.80;;;;;;;5.95;98.48;96923.78;5033605;28;20036;-77
2023/12/13 07:00:38;;;;;;;0.80;0.80;;;;;;;5.91;98.80;96917.53;5030386;28;20043;-77
2023/12/13 07:03:03;;;;;;;0.70;0.70;;;;;;;5.91;98.68;96916.63;5035183;28;20256;-77
2023/12/13 07:05:31;;;;;;;0.70;0.70;;;;;;;5.91;98.52;96920.19;5038700;28;20056;-77
2023/12/13 07:07:57;;;;;;;0.75;0.75;;;;;;;5.89;98.82;96916.59;5033380;28;20048;-77
2023/12/13 07:10:22;;;;;;;0.80;0.80;;;;;;;5.95;98.58;96915.84;5033679;28;20264;-77
2023/12/13 07:12:48;;;;;;;0.80;0.80;;;;;;;5.97;98.71;96921.16;5031258;28;20038;-76
2023/12/13 07:15:14;;;;;;;0.75;0.75;;;;;;;5.94;98.30;96914.06;5034677;28;20033;-77
2023/12/13 07:17:42;;;;;;;0.73;0.73;;;;;;;5.98;98.45;96905.28;5035126;28;20064;-77
2023/12/13 07:20:08;;;;;;;0.80;0.80;;;;;;;5.99;98.60;96898.25;5034563;28;20045;-77
2023/12/13 07:22:33;;;;;;;0.70;0.70;;;;;;;6.03;98.30;96910.66;5041064;28;20461;-76
2023/12/13 07:24:59;;;;;;;0.80;0.80;;;;;;;6.04;97.82;96908.06;5033909;28;20025;-76
2023/12/13 07:27:24;;;;;;;0.70;0.70;;;;;;;6.03;98.11;96906.25;5036787;28;20120;-77
2023/12/13 07:29:50;;;;;;;0.80;0.80;;;;;;;6.14;96.59;96909.13;5035737;28;20033;-76
2023/12/13 07:32:18;;;;;;;0.80;0.80;;;;;;;6.26;95.70;96909.31;5034248;28;20044;-76
2023/12/13 07:34:44;;;;;;;0.80;0.80;;;;;;;6.34;95.14;96907.69;5049228;28;20118;-76
2023/12/13 07:37:10;;;;;;;0.80;0.80;;;;;;;6.40;94.80;96918.38;5034840;28;20037;-76
2023/12/13 07:39:36;;;;;;;0.70;0.70;;;;;;;6.50;93.99;96916.75;5034442;28;20559;-77
2023/12/13 07:42:03;;;;;;;0.80;0.80;;;;;;;6.71;92.49;96916.22;5037353;28;20487;-77
2023/12/13 07:44:31;;;;;;;0.88;0.88;;;;;;;6.72;92.13;96911.81;5036401;28;20041;-77
2023/12/13 07:46:56;;;;;;;0.80;0.80;;;;;;;6.83;91.56;96903.13;5038701;28;20878;-76
2023/12/13 07:49:22;;;;;;;0.80;0.80;;;;;;;6.75;92.53;96898.56;5033893;28;20096;-77
2023/12/13 07:51:47;;;;;;;0.70;0.70;;;;;;;6.70;93.14;96895.84;5035403;28;20140;-77
2023/12/13 07:54:16;;;;;;;0.70;0.70;;;;;;;6.67;93.03;96891.41;5048318;28;20068;-77
2023/12/13 07:56:41;;;;;;;0.80;0.80;;;;;;;6.74;92.17;96889.72;5031568;28;20091;-77
2023/12/13 07:59:06;;;;;;;0.70;0.70;;;;;;;6.75;91.76;96891.50;5033228;28;20042;-77
2023/12/13 08:01:32;;;;;;;0.75;0.75;;;;;;;6.85;91.27;96890.81;5034129;28;20044;-77
2023/12/13 08:03:58;;;;;;;0.80;0.80;;;;;;;6.81;90.99;96894.28;5034983;28;20061;-78
2023/12/13 08:06:24;;;;;;;0.90;0.90;;;;;;;6.85;91.42;96901.41;5034225;28;20104;-77
2023/12/13 08:08:51;;;;;;;0.73;0.73;;;;;;;6.94;90.52;96904.16;5034815;28;20852;-77
2023/12/13 08:11:16;;;;;;;0.80;0.80;;;;;;;7.01;90.46;96899.84;5038174;28;20064;-77
2023/12/13 08:13:43;;;;;;;0.80;0.80;;;;;;;7.10;88.83;96896.44;5032340;28;20044;-76
2023/12/13 08:16:09;;;;;;;0.80;0.80;;;;;;;7.05;89.41;96906.97;5032521;28;20407;-76
2023/12/13 08:18:36;;;;;;;0.80;0.80;;;;;;;7.01;89.43;96902.50;5032737;28;20048;-77
2023/12/13 08:21:03;;;;;;;0.70;0.70;;;;;;;7.08;88.27;96906.09;5033441;28;20076;-77
2023/12/13 08:23:29;;;;;;;0.80;0.80;;;;;;;7.01;89.88;96901.59;5031098;28;20451;-77
2023/12/13 08:25:56;;;;;;;0.80;0.80;;;;;;;6.98;89.63;96909.50;5031637;28;20048;-77
2023/12/13 08:28:21;;;;;;;0.80;0.80;;;;;;;7.06;89.01;96900.78;5036081;28;20550;-77
2023/12/13 08:30:47;;;;;;;0.82;0.82;;;;;;;7.17;88.35;96898.28;5035969;28;20049;-77
2023/12/13 08:33:13;;;;;;;0.80;0.80;;;;;;;7.12;88.49;96900.88;5030115;28;20037;-77
2023/12/13 08:35:38;;;;;;;0.80;0.80;;;;;;;7.11;88.77;96901.75;5029995;28;20037;-76
2023/12/13 08:38:04;;;;;;;0.80;0.80;;;;;;;7.05;88.69;96903.44;5032170;28;20037;-77
2023/12/13 08:40:29;;;;;;;0.80;0.80;;;;;;;7.28;87.61;96901.06;5030718;28;20478;-76
2023/12/13 08:42:54;;;;;;;0.70;0.70;;;;;;;7.20;87.81;96900.97;5032472;28;20033;-76
2023/12/13 08:45:20;;;;;;;0.80;0.80;;;;;;;7.22;88.00;96896.56;5033426;28;20037;-77
2023/12/13 08:47:45;;;;;;;0.80;0.80;;;;;;;7.28;87.98;96903.69;5037703;28;20040;-77
2023/12/13 08:50:11;;;;;;;0.80;0.80;;;;;;;7.33;87.23;96899.34;5032630;28;20119;-77
2023/12/13 08:52:36;;;;;;;0.85;0.85;;;;;;;7.37;87.05;96899.41;5035827;28;20033;-77
2023/12/13 08:55:02;;;;;;;0.80;0.80;;;;;;;7.43;86.43;96890.66;5031206;28;20573;-77
2023/12/13 08:57:27;;;;;;;0.80;0.80;;;;;;;7.34;87.56;96899.38;5032344;28;20099;-76
2023/12/13 08:59:53;;;;;;;0.80;0.80;;;;;;;7.31;87.65;96888.72;5035421;28;20033;-76
2023/12/13 09:02:19;;;;;;;0.75;0.75;;;;;;;7.27;88.30;96894.84;5034988;28;20135;-76
2023/12/13 09:04:44;;;;;;;0.80;0.80;;;;;;;7.26;88.23;96890.44;5038374;28;20041;-77
2023/12/13 09:07:10;;;;;;;0.70;0.70;;;;;;;7.27;88.07;96896.63;5039311;28;20049;-76
2023/12/13 09:09:37;;;;;;;0.80;0.80;;;;;;;7.34;88.04;96886.13;5037056;28;20040;-76
2023/12/13 09:12:05;;;;;;;0.90;0.90;;;;;;;7.36;88.62;96894.09;5036553;28;20053;-77
2023/12/13 09:14:31;;;;;;;0.70;0.70;;;;;;;7.41;88.22;96887.06;5037913;28;20038;-77
2023/12/13 09:16:56;;;;;;;0.70;0.70;;;;;;;7.48;88.65;96885.41;5035557;28;20045;-77
2023/12/13 09:19:22;;;;;;;0.80;0.80;;;;;;;7.42;89.06;96884.44;5036792;28;20062;-77
2023/12/13 09:21:47;;;;;;;0.80;0.80;;;;;;;7.37;89.23;96886.13;5038642;28;20112;-77
2023/12/13 09:24:13;;;;;;;0.70;0.70;;;;;;;7.39;89.18;96887.06;5037109;28;20037;-77
2023/12/13 09:26:38;;;;;;;0.70;0.70;;;;;;;7.56;89.54;96891.66;5032782;28;20073;-77
2023/12/13 09:29:04;;;;;;;0.70;0.70;;;;;;;7.57;89.08;96897.00;5032232;28;20155;-77
2023/12/13 09:31:30;;;;;;;0.70;0.70;;;;;;;7.66;89.29;96905.03;5030696;28;20387;-77
2023/12/13 09:33:57;;;;;;;0.60;0.60;;;;;;;7.84;87.85;96898.16;5044941;28;20049;-77
2023/12/13 09:36:22;;;;;;;0.70;0.70;;;;;;;7.77;87.71;96910.50;5032368;28;20529;-77
2023/12/13 09:38:48;;;;;;;0.70;0.70;;;;;;;7.87;89.01;96908.81;5031408;28;20045;-77
2023/12/13 09:41:21;;;;;;;0.80;0.80;;;;;;;7.85;87.43;96902.59;5031254;28;20057;-76
2023/12/13 09:43:46;;;;;;;0.70;0.70;;;;;;;8.03;88.36;96894.81;5040862;28;20037;-77
2023/12/13 09:46:13;;;;;;;0.70;0.70;;;;;;;8.08;87.65;96914.34;5043100;28;20044;-76
2023/12/13 09:48:40;;;;;;;0.70;0.70;;;;;;;8.23;87.97;96910.94;5043788;28;20159;-77
2023/12/13 09:51:07;;;;;;;0.80;0.80;;;;;;;8.31;87.57;96909.22;5044423;28;20045;-77
2023/12/13 09:53:33;;;;;;;0.80;0.80;;;;;;;8.72;87.15;96908.72;5041469;28;20048;-77
2023/12/13 09:56:00;;;;;;;0.60;0.60;;;;;;;8.71;86.81;96917.53;5029034;28;20033;-77
2023/12/13 09:58:26;;;;;;;0.70;0.70;;;;;;;8.72;87.13;96909.59;5032220;28;20041;-77
2023/12/13 10:00:51;;;;;;;0.60;0.60;;;;;;;8.72;86.60;96920.25;5044662;28;20387;-77
2023/12/13 10:03:17;;;;;;;0.70;0.70;;;;;;;8.69;86.98;96909.56;5045985;28;20040;-77
2023/12/13 10:05:47;;;;;;;0.60;0.60;;;;;;;8.31;87.95;96921.63;5038871;28;20049;-77
2023/12/13 10:08:14;;;;;;;0.60;0.60;;;;;;;8.06;88.09;96929.38;5031044;28;20055;-77
2023/12/13 10:10:40;;;;;;;0.70;0.70;;;;;;;8.06;88.43;96928.50;5040389;28;20056;-77
2023/12/13 10:13:09;;;;;;;0.70;0.70;;;;;;;8.39;88.35;96926.19;5030842;28;20045;-78
2023/12/13 10:15:36;;;;;;;0.60;0.60;;;;;;;8.36;87.84;96922.56;5032048;28;20045;-77
2023/12/13 10:18:02;;;;;;;0.70;0.70;;;;;;;8.53;88.27;96926.28;5029959;28;20037;-77
2023/12/13 10:20:30;;;;;;;0.80;0.80;;;;;;;8.49;87.89;96921.81;5031376;28;20437;-77
2023/12/13 10:22:56;;;;;;;0.60;0.60;;;;;;;8.57;87.84;96921.88;5033411;28;20049;-78
2023/12/13 10:25:23;;;;;;;0.70;0.70;;;;;;;8.58;88.01;96921.00;5031377;28;20022;-77
2023/12/13 10:27:50;;;;;;;0.60;0.60;;;;;;;8.66;85.99;96914.84;5032897;28;20052;-77
2023/12/13 10:30:18;;;;;;;0.60;0.60;;;;;;;8.60;86.83;96927.22;5029900;28;20034;-77
2023/12/13 10:32:44;;;;;;;0.60;0.60;;;;;;;8.54;87.26;96924.53;5031761;28;20052;-77
2023/12/13 10:35:09;;;;;;;0.60;0.60;;;;;;;8.50;87.68;96925.38;5032883;28;20041;-77
2023/12/13 10:37:35;;;;;;;0.60;0.60;;;;;;;8.48;87.89;96917.41;5030596;28;20045;-77
2023/12/13 10:40:03;;;;;;;0.63;0.63;;;;;;;8.58;88.30;96921.00;5031139;28;20095;-76
2023/12/13 10:42:29;;;;;;;0.63;0.63;;;;;;;8.81;87.24;96919.38;5031272;28;20120;-76
2023/12/13 10:44:55;;;;;;;0.60;0.60;;;;;;;8.63;87.08;96916.63;5016274;28;20050;-77
2023/12/13 10:47:25;;;;;;;0.60;0.60;;;;;;;8.57;87.89;96909.47;5031357;28;20476;-77
2023/12/13 10:49:55;;;;;;;0.60;0.60;;;;;;;8.61;88.67;96905.06;5031923;28;20041;-77
2023/12/13 10:52:22;;;;;;;0.70;0.70;;;;;;;8.71;89.03;96904.25;5035564;28;20040;-77
2023/12/13 10:54:49;;;;;;;0.70;0.70;;;;;;;8.78;88.45;96905.19;5033380;28;20064;-76
2023/12/13 10:57:14;;;;;;;0.60;0.60;;;;;;;8.57;88.71;96904.16;5035361;28;20044;-77
2023/12/13 10:59:44;;;;;;;0.68;0.68;;;;;;;8.75;88.45;96911.38;5032030;28;20391;-77
2023/12/13 11:02:12;;;;;;;0.50;0.50;;;;;;;8.82;88.61;96912.31;5034753;28;20037;-77
2023/12/13 11:04:38;;;;;;;0.60;0.60;;;;;;;8.71;87.89;96896.28;5036973;28;20044;-77
2023/12/13 11:07:04;;;;;;;0.60;0.60;;;;;;;8.96;88.25;96900.91;5034888;28;20064;-78
2023/12/13 11:09:30;;;;;;;0.60;0.60;;;;;;;8.99;86.89;96897.34;5033654;28;20099;-78
2023/12/13 11:11:59;;;;;;;0.60;0.60;;;;;;;8.90;86.26;96892.84;5035773;28;20111;-78
2023/12/13 11:14:28;;;;;;;0.60;0.60;;;;;;;8.83;86.76;96895.47;5034432;28;20480;-78
2023/12/13 11:16:57;;;;;;;0.65;0.65;;;;;;;9.08;85.49;96889.41;5035801;28;20041;-78
2023/12/13 11:19:24;;;;;;;0.70;0.70;;;;;;;9.36;85.63;96887.78;5034164;28;20120;-77
2023/12/13 11:21:50;;;;;;;0.70;0.70;;;;;;;9.75;84.71;96883.47;5041306;28;20649;-77
2023/12/13 11:24:22;;;;;;;0.70;0.70;;;;;;;9.60;84.61;96888.75;5034384;28;20131;-77
2023/12/13 11:26:53;;;;;;;0.70;0.70;;;;;;;10.09;82.42;96880.88;5034519;28;20149;-77
2023/12/13 11:29:25;;;;;;;0.60;0.60;;;;;;;10.10;83.03;96887.97;5019418;28;20123;-77
2023/12/13 11:32:01;;;;;;;0.70;0.70;;;;;;;9.85;81.75;96885.25;5027543;28;20440;-78
2023/12/13 11:34:31;;;;;;;0.70;0.70;;;;;;;10.23;82.52;96879.09;5034024;28;20048;-77
2023/12/13 11:37:01;;;;;;;0.60;0.60;;;;;;;10.51;81.92;96880.91;5037402;28;20030;-76